createdAt,value
2022-12-20T00:01:45.217Z,0.60
2022-12-20T00:04:13.589Z,0.60
2022-12-20T00:06:41.829Z,0.60
2022-12-20T00:09:10.500Z,0.70
2022-12-20T00:11:40.967Z,0.70
2022-12-20T00:14:10.838Z,0.80
2022-12-20T00:16:39.132Z,0.70
2022-12-20T00:19:07.862Z,0.70
2022-12-20T00:21:36.500Z,0.70
2022-12-20T00:24:05.449Z,0.70
2022-12-20T00:26:34.709Z,0.70
2022-12-20T00:29:02.649Z,0.80
2022-12-20T00:31:32.692Z,0.80
2022-12-20T00:34:02.185Z,0.80
2022-12-20T00:36:31.620Z,0.70
2022-12-20T00:39:00.620Z,0.70
2022-12-20T00:41:30.357Z,0.80
2022-12-20T00:43:58.548Z,0.90
2022-12-20T00:46:27.172Z,0.90
2022-12-20T00:48:57.136Z,0.80
2022-12-20T00:51:26.998Z,0.70
2022-12-20T00:53:55.586Z,0.80
2022-12-20T00:56:23.947Z,0.80
2022-12-20T00:58:54.431Z,0.70
2022-12-20T01:01:24.830Z,0.80
2022-12-20T01:03:53.571Z,0.80
2022-12-20T01:06:23.612Z,0.80
2022-12-20T01:08:51.936Z,0.80
2022-12-20T01:11:21.921Z,0.80
2022-12-20T01:13:52.346Z,0.80
2022-12-20T01:16:22.616Z,0.80
2022-12-20T01:18:51.253Z,0.80
2022-12-20T01:21:21.119Z,0.80
2022-12-20T01:23:50.517Z,0.70
2022-12-20T01:26:22.141Z,0.70
2022-12-20T01:28:50.785Z,0.80
2022-12-20T01:31:19.902Z,0.80
2022-12-20T01:33:49.875Z,0.80
2022-12-20T01:36:19.626Z,0.80
2022-12-20T01:38:47.832Z,0.80
2022-12-20T01:41:19.025Z,0.90
2022-12-20T01:43:50.245Z,0.90
2022-12-20T01:46:19.470Z,0.90
2022-12-20T01:48:51.723Z,0.90
2022-12-20T01:51:20.212Z,0.90
2022-12-20T01:53:49.861Z,0.90
2022-12-20T01:56:19.080Z,0.90
2022-12-20T01:58:49.898Z,1.00
2022-12-20T02:01:17.687Z,1.00
2022-12-20T02:03:46.271Z,0.90
2022-12-20T02:06:20.405Z,0.80
2022-12-20T02:08:50.883Z,0.90
2022-12-20T02:11:33.211Z,0.90
2022-12-20T02:14:11.364Z,1.00
2022-12-20T02:16:46.438Z,1.00
2022-12-20T02:19:26.807Z,1.00
2022-12-20T02:22:01.081Z,1.00
2022-12-20T02:25:02.621Z,1.00
2022-12-20T02:27:54.044Z,1.00
2022-12-20T02:30:25.009Z,1.00
2022-12-20T02:32:59.724Z,1.00
2022-12-20T02:35:30.599Z,1.00
2022-12-20T02:38:00.945Z,1.00
2022-12-20T02:40:33.162Z,1.00
2022-12-20T02:43:04.061Z,1.00
2022-12-20T02:45:36.384Z,1.00
2022-12-20T02:48:08.951Z,1.00
2022-12-20T02:50:41.297Z,0.90
2022-12-20T02:53:10.698Z,0.90
2022-12-20T02:55:46.955Z,0.90
2022-12-20T02:58:22.468Z,1.00
2022-12-20T03:00:54.091Z,0.90
2022-12-20T03:03:25.709Z,0.90
2022-12-20T03:05:55.585Z,1.00
2022-12-20T03:08:24.713Z,1.00
2022-12-20T03:10:53.643Z,1.00
2022-12-20T03:13:22.036Z,1.00
2022-12-20T03:15:51.202Z,1.00
2022-12-20T03:18:19.069Z,0.90
2022-12-20T03:20:46.926Z,1.00
2022-12-20T03:23:14.876Z,1.00
2022-12-20T03:25:42.722Z,1.10
2022-12-20T03:28:10.540Z,1.10
2022-12-20T03:30:38.374Z,1.00
2022-12-20T03:33:07.590Z,1.10
2022-12-20T03:35:35.356Z,1.10
2022-12-20T03:38:03.140Z,1.10
2022-12-20T03:40:30.996Z,1.10
2022-12-20T03:42:58.769Z,1.10
2022-12-20T03:45:26.791Z,1.20
2022-12-20T03:47:54.854Z,1.20
2022-12-20T03:50:24.028Z,1.10
2022-12-20T03:52:51.795Z,1.20
2022-12-20T03:55:19.605Z,1.20
2022-12-20T03:57:47.714Z,1.20
2022-12-20T04:00:16.957Z,1.30
2022-12-20T04:02:45.027Z,1.20
2022-12-20T04:05:13.162Z,1.30
2022-12-20T04:07:42.294Z,1.40
2022-12-20T04:10:10.829Z,1.30
2022-12-20T04:12:38.826Z,1.30
2022-12-20T04:15:07.986Z,1.20
2022-12-20T04:17:35.809Z,1.20
2022-12-20T04:20:18.857Z,1.30
2022-12-20T04:22:48.418Z,1.30
2022-12-20T04:25:18.340Z,1.40
2022-12-20T04:27:46.414Z,1.30
2022-12-20T04:30:15.020Z,1.30
2022-12-20T04:32:42.836Z,1.20
2022-12-20T04:35:11.309Z,1.20
2022-12-20T04:37:39.109Z,1.20
2022-12-20T04:40:10.062Z,1.20
2022-12-20T04:42:37.836Z,1.30
2022-12-20T04:45:06.452Z,1.30
2022-12-20T04:47:34.240Z,1.30
2022-12-20T04:50:01.998Z,1.30
2022-12-20T04:52:48.246Z,1.30
2022-12-20T04:55:18.021Z,1.30
2022-12-20T04:57:45.933Z,1.40
2022-12-20T05:00:15.299Z,1.30
2022-12-20T05:02:43.264Z,1.40
2022-12-20T05:05:11.236Z,1.30
2022-12-20T05:07:39.058Z,1.40
2022-12-20T05:10:07.813Z,1.40
2022-12-20T05:12:36.959Z,1.40
2022-12-20T05:15:05.515Z,1.40
2022-12-20T05:17:33.341Z,1.40
2022-12-20T05:20:01.180Z,1.40
2022-12-20T05:22:46.753Z,1.40
2022-12-20T05:25:32.287Z,1.40
2022-12-20T05:28:01.495Z,1.30
2022-12-20T05:30:29.721Z,1.40
2022-12-20T05:32:57.560Z,1.40
2022-12-20T05:35:25.393Z,1.40
2022-12-20T05:37:53.280Z,1.40
2022-12-20T05:40:21.036Z,1.30
2022-12-20T05:42:48.820Z,1.30
2022-12-20T05:45:18.091Z,1.20
2022-12-20T05:47:46.025Z,1.20
2022-12-20T05:50:18.532Z,1.30
2022-12-20T05:52:46.945Z,1.30
2022-12-20T05:55:14.808Z,1.30
2022-12-20T05:57:42.832Z,1.30
2022-12-20T06:00:11.952Z,1.30
2022-12-20T06:02:41.434Z,1.20
2022-12-20T06:05:09.997Z,1.20
2022-12-20T06:07:37.911Z,1.30
2022-12-20T06:10:07.629Z,1.20
2022-12-20T06:12:35.895Z,1.30
2022-12-20T06:15:03.956Z,1.30
2022-12-20T06:17:31.759Z,1.30
2022-12-20T06:20:00.847Z,1.30
2022-12-20T06:22:28.634Z,1.20
2022-12-20T06:24:56.493Z,1.30
2022-12-20T06:27:24.319Z,1.30
2022-12-20T06:29:54.340Z,1.40
2022-12-20T06:32:22.277Z,1.40
2022-12-20T06:34:50.032Z,1.50
2022-12-20T06:37:19.164Z,1.50
2022-12-20T06:39:47.056Z,1.40
2022-12-20T06:42:14.889Z,1.50
2022-12-20T06:44:42.642Z,1.50
2022-12-20T06:47:10.516Z,1.60
2022-12-20T06:49:38.368Z,1.60
2022-12-20T06:52:06.516Z,1.60
2022-12-20T06:54:35.794Z,1.60
2022-12-20T06:57:03.598Z,1.60
2022-12-20T06:59:31.355Z,1.60
2022-12-20T07:01:59.503Z,1.50
2022-12-20T07:04:27.758Z,1.50
2022-12-20T07:06:56.977Z,1.50
2022-12-20T07:09:25.053Z,1.50
2022-12-20T07:11:54.176Z,1.50
2022-12-20T07:14:22.040Z,1.50
2022-12-20T07:16:50.171Z,1.50
2022-12-20T07:19:17.999Z,1.50
2022-12-20T07:21:45.768Z,1.50
2022-12-20T07:24:13.606Z,1.60
2022-12-20T07:26:41.651Z,1.60
2022-12-20T07:29:15.404Z,1.60
2022-12-20T07:31:43.971Z,1.60
2022-12-20T07:34:12.376Z,1.50
2022-12-20T07:36:40.221Z,1.50
2022-12-20T07:39:08.273Z,1.60
2022-12-20T07:41:36.044Z,1.60
2022-12-20T07:44:03.945Z,1.60
2022-12-20T07:46:33.186Z,1.70
2022-12-20T07:49:01.010Z,1.70
2022-12-20T07:51:32.511Z,1.70
2022-12-20T07:54:04.036Z,1.70
2022-12-20T07:56:39.223Z,1.80
2022-12-20T07:59:10.514Z,1.90
2022-12-20T08:01:41.271Z,1.90
2022-12-20T08:04:13.874Z,2.00
2022-12-20T08:06:42.823Z,2.00
2022-12-20T08:09:13.559Z,2.00
2022-12-20T08:11:43.191Z,1.90
2022-12-20T08:14:11.505Z,2.10
2022-12-20T08:16:41.520Z,2.10
2022-12-20T08:19:09.382Z,2.10
2022-12-20T08:21:37.513Z,2.20
2022-12-20T08:24:05.547Z,2.20
2022-12-20T08:26:37.697Z,2.30
2022-12-20T08:29:05.480Z,2.40
2022-12-20T08:31:33.373Z,2.50
2022-12-20T08:34:02.922Z,2.50
2022-12-20T08:36:30.730Z,2.60
2022-12-20T08:38:58.532Z,2.70
2022-12-20T08:41:26.354Z,2.60
2022-12-20T08:43:54.174Z,2.70
2022-12-20T08:46:22.009Z,2.80
2022-12-20T08:48:49.843Z,2.80
2022-12-20T08:51:19.057Z,2.80
2022-12-20T08:53:46.895Z,2.80
2022-12-20T08:56:16.350Z,2.90
2022-12-20T08:58:44.988Z,2.90
2022-12-20T09:01:14.864Z,2.90
2022-12-20T09:03:45.232Z,3.00
2022-12-20T09:06:15.553Z,3.10
2022-12-20T09:08:44.992Z,3.00
2022-12-20T09:11:14.651Z,3.10
2022-12-20T09:13:44.807Z,3.20
2022-12-20T09:16:14.837Z,3.30
2022-12-20T09:18:42.854Z,3.40
2022-12-20T09:21:11.902Z,3.50
2022-12-20T09:23:39.832Z,3.60
2022-12-20T09:26:11.896Z,3.60
2022-12-20T09:28:40.435Z,3.70
2022-12-20T09:31:10.911Z,3.80
2022-12-20T09:33:38.811Z,3.70
2022-12-20T09:36:07.282Z,3.90
2022-12-20T09:38:35.072Z,3.90
2022-12-20T09:41:06.053Z,3.90
2022-12-20T09:43:35.725Z,3.90
2022-12-20T09:46:04.880Z,4.00
2022-12-20T09:48:36.277Z,4.10
2022-12-20T09:51:19.205Z,4.10
2022-12-20T09:53:59.931Z,4.20
2022-12-20T09:56:31.145Z,4.40
2022-12-20T09:59:02.928Z,4.30
2022-12-20T10:01:38.594Z,4.30
2022-12-20T10:04:16.680Z,4.40
2022-12-20T10:06:55.746Z,4.40
2022-12-20T10:09:41.270Z,4.50
2022-12-20T10:12:21.714Z,4.60
2022-12-20T10:15:04.594Z,4.70
2022-12-20T10:17:43.444Z,4.70
2022-12-20T10:20:25.230Z,4.80
2022-12-20T10:22:58.713Z,4.90
2022-12-20T10:25:32.097Z,5.00
2022-12-20T10:28:03.077Z,5.00
2022-12-20T10:30:35.463Z,5.00
2022-12-20T10:33:03.396Z,5.00
2022-12-20T10:35:34.581Z,5.20
2022-12-20T10:38:08.876Z,5.30
2022-12-20T10:41:18.615Z,5.30
2022-12-20T10:43:27.698Z,5.30
2022-12-20T10:46:02.828Z,5.30
2022-12-20T10:48:33.213Z,5.20
2022-12-20T10:51:03.670Z,5.20
2022-12-20T10:53:32.442Z,5.30
2022-12-20T10:56:19.039Z,5.10
2022-12-20T10:58:54.316Z,5.30
2022-12-20T11:01:32.058Z,5.20
2022-12-20T11:04:02.722Z,5.40
2022-12-20T11:06:42.742Z,5.40
2022-12-20T11:09:30.607Z,5.40
2022-12-20T11:12:03.471Z,5.50
2022-12-20T11:14:38.739Z,5.60
2022-12-20T11:17:20.625Z,5.70
2022-12-20T11:20:05.338Z,5.70
2022-12-20T11:22:44.142Z,5.80
2022-12-20T11:25:29.152Z,5.90
2022-12-20T11:28:21.796Z,5.90
2022-12-20T11:31:00.266Z,5.90
2022-12-20T11:33:57.008Z,6.00
2022-12-20T11:36:34.136Z,5.90
2022-12-20T11:39:13.922Z,6.10
2022-12-20T11:41:51.523Z,6.10
2022-12-20T11:44:27.808Z,6.10
2022-12-20T11:47:16.015Z,6.20
2022-12-20T11:50:05.139Z,6.40
2022-12-20T11:52:38.026Z,6.40
2022-12-20T11:55:17.765Z,6.40
2022-12-20T11:58:17.340Z,6.50
2022-12-20T12:00:47.351Z,6.50
2022-12-20T12:03:23.138Z,6.40
2022-12-20T12:05:54.909Z,6.50
2022-12-20T12:08:26.697Z,6.70
2022-12-20T12:10:59.284Z,6.50
2022-12-20T12:13:30.221Z,6.50
2022-12-20T12:16:02.801Z,6.60
2022-12-20T12:18:33.054Z,6.70
2022-12-20T12:21:10.137Z,6.60
2022-12-20T12:23:46.284Z,6.60
2022-12-20T12:26:20.481Z,6.50
2022-12-20T12:28:54.358Z,6.60
2022-12-20T12:31:28.437Z,6.60
2022-12-20T12:34:07.239Z,6.60
2022-12-20T12:37:07.664Z,6.50
2022-12-20T12:40:17.685Z,6.50
2022-12-20T12:43:06.153Z,6.50
2022-12-20T12:45:38.663Z,6.40
2022-12-20T12:48:14.769Z,6.40
2022-12-20T12:50:47.016Z,6.40
2022-12-20T12:53:18.751Z,6.40
2022-12-20T12:55:48.576Z,6.40
2022-12-20T12:58:34.875Z,6.30
2022-12-20T13:01:08.090Z,6.20
2022-12-20T13:04:23.505Z,6.20
2022-12-20T13:07:03.519Z,6.10
2022-12-20T13:09:43.432Z,6.00
2022-12-20T13:12:50.622Z,5.70
2022-12-20T13:16:07.463Z,5.60
2022-12-20T13:18:35.331Z,5.80
2022-12-20T13:21:46.580Z,5.80
2022-12-20T13:24:40.980Z,5.70
2022-12-20T13:27:24.414Z,5.70
2022-12-20T13:29:56.133Z,5.70
2022-12-20T13:32:55.628Z,5.80
2022-12-20T13:35:33.091Z,5.70
2022-12-20T13:38:04.588Z,5.80
2022-12-20T13:40:39.059Z,5.60
2022-12-20T13:43:17.771Z,5.50
2022-12-20T13:45:48.464Z,5.30
2022-12-20T13:48:19.685Z,5.30
2022-12-20T13:50:52.749Z,5.10
2022-12-20T13:53:22.543Z,5.00
2022-12-20T13:55:50.731Z,5.00
2022-12-20T13:58:22.112Z,4.90
2022-12-20T14:01:06.419Z,4.80
2022-12-20T14:03:36.812Z,4.60
2022-12-20T14:06:10.315Z,4.60
2022-12-20T14:08:42.354Z,4.60
2022-12-20T14:11:12.065Z,4.80
2022-12-20T14:13:40.039Z,4.90
2022-12-20T14:16:17.033Z,5.00
2022-12-20T14:18:50.181Z,5.00
2022-12-20T14:21:19.674Z,5.10
2022-12-20T14:23:50.585Z,5.10
2022-12-20T14:26:23.000Z,5.10
2022-12-20T14:28:52.379Z,5.10
2022-12-20T14:31:41.581Z,5.00
2022-12-20T14:34:17.522Z,5.00
2022-12-20T14:36:46.804Z,4.90
2022-12-20T14:39:26.064Z,4.80
2022-12-20T14:41:57.756Z,4.70
2022-12-20T14:44:27.130Z,4.70
2022-12-20T14:46:57.847Z,4.50
2022-12-20T14:49:30.157Z,4.40
2022-12-20T14:52:08.680Z,4.50
2022-12-20T14:57:39.228Z,4.40
2022-12-20T15:00:15.603Z,4.40
2022-12-20T15:02:52.746Z,4.40
2022-12-20T15:05:54.273Z,4.30
2022-12-20T15:08:27.141Z,4.20
2022-12-20T15:10:58.393Z,4.10
2022-12-20T15:13:29.575Z,4.10
2022-12-20T15:15:59.989Z,4.00
2022-12-20T15:18:29.175Z,3.90
2022-12-20T15:21:06.473Z,3.90
2022-12-20T15:23:35.372Z,3.80
2022-12-20T15:26:03.316Z,3.80
2022-12-20T15:28:31.086Z,3.80
2022-12-20T15:30:59.201Z,3.80
2022-12-20T15:33:31.738Z,3.80
2022-12-20T15:35:59.534Z,3.70
2022-12-20T15:39:03.469Z,3.30
2022-12-20T15:41:20.449Z,3.60
2022-12-20T15:43:48.960Z,3.50
2022-12-20T15:46:17.159Z,3.50
2022-12-20T15:48:46.395Z,3.60
2022-12-20T15:51:18.389Z,3.60
2022-12-20T15:53:46.470Z,3.40
2022-12-20T15:56:21.571Z,3.40
2022-12-20T15:58:52.525Z,3.40
2022-12-20T16:01:23.473Z,3.40
2022-12-20T16:03:52.826Z,3.40
2022-12-20T16:06:20.794Z,3.40
2022-12-20T16:08:48.537Z,3.40
2022-12-20T16:11:22.590Z,3.40
2022-12-20T16:13:50.468Z,3.40
2022-12-20T16:16:19.427Z,3.30
2022-12-20T16:18:47.337Z,3.30
2022-12-20T16:21:18.956Z,3.30
2022-12-20T16:23:47.121Z,3.30
2022-12-20T16:26:16.101Z,3.30
2022-12-20T16:28:44.565Z,3.30
2022-12-20T16:31:20.555Z,3.30
2022-12-20T16:33:48.358Z,3.30
2022-12-20T16:36:17.475Z,3.40
2022-12-20T16:38:45.768Z,3.30
2022-12-20T16:41:15.278Z,3.20
2022-12-20T16:43:43.742Z,3.30
2022-12-20T16:46:13.519Z,3.30
2022-12-20T16:48:42.015Z,3.20
2022-12-20T16:51:26.531Z,3.30
2022-12-20T16:54:18.136Z,3.20
2022-12-20T16:56:43.935Z,3.10
2022-12-20T16:59:21.285Z,3.10
2022-12-20T17:01:52.583Z,3.10
2022-12-20T17:04:21.303Z,3.10
2022-12-20T17:06:51.031Z,2.90
2022-12-20T17:12:10.769Z,3.00
2022-12-20T17:14:38.693Z,3.10
2022-12-20T17:17:07.450Z,3.00
2022-12-20T17:19:35.419Z,3.00
2022-12-20T17:22:23.356Z,3.00
2022-12-20T17:24:51.311Z,2.90
2022-12-20T17:27:19.226Z,3.00
2022-12-20T17:29:46.950Z,3.00
2022-12-20T17:32:20.777Z,3.00
2022-12-20T17:34:49.044Z,3.00
2022-12-20T17:37:18.604Z,3.00
2022-12-20T17:39:46.610Z,3.00
2022-12-20T17:42:15.219Z,2.90
2022-12-20T17:44:43.052Z,2.70
2022-12-20T17:47:11.543Z,2.80
2022-12-20T17:49:39.676Z,2.80
2022-12-20T17:52:07.480Z,2.80
2022-12-20T17:54:40.075Z,2.80
2022-12-20T17:57:13.277Z,2.80
2022-12-20T17:59:41.166Z,2.80
2022-12-20T18:02:21.833Z,2.90
2022-12-20T18:04:50.215Z,2.90
2022-12-20T18:07:18.337Z,2.90
2022-12-20T18:09:49.100Z,3.00
2022-12-20T18:12:17.554Z,2.90
2022-12-20T18:14:45.777Z,3.00
2022-12-20T18:17:13.791Z,3.00
2022-12-20T18:19:43.694Z,2.90
2022-12-20T18:22:11.485Z,2.90
2022-12-20T18:24:39.287Z,2.90
2022-12-20T18:27:08.539Z,2.90
2022-12-20T18:29:36.365Z,2.80
2022-12-20T18:32:04.509Z,2.90
2022-12-20T18:34:32.638Z,2.90
2022-12-20T18:37:01.777Z,2.80
2022-12-20T18:39:29.581Z,2.80
2022-12-20T18:41:57.467Z,2.80
2022-12-20T18:44:26.647Z,2.80
2022-12-20T18:46:54.647Z,2.80
2022-12-20T18:49:22.653Z,2.90
2022-12-20T18:51:50.398Z,2.90
2022-12-20T18:54:18.162Z,2.90
2022-12-20T18:56:45.998Z,2.90
2022-12-20T18:59:14.291Z,2.80
2022-12-20T19:01:43.939Z,2.80
2022-12-20T19:04:12.366Z,2.80
2022-12-20T19:06:40.952Z,2.70
2022-12-20T19:09:11.268Z,2.50
2022-12-20T19:11:39.561Z,2.60
2022-12-20T19:14:09.009Z,2.70
2022-12-20T19:16:39.462Z,2.60
2022-12-20T19:19:09.345Z,2.70
2022-12-20T19:21:39.009Z,2.70
2022-12-20T19:24:08.037Z,2.70
2022-12-20T19:26:37.316Z,2.70
2022-12-20T19:29:06.171Z,2.60
2022-12-20T19:31:36.428Z,2.70
2022-12-20T19:34:08.626Z,2.60
2022-12-20T19:36:39.057Z,2.50
2022-12-20T19:39:09.314Z,2.60
2022-12-20T19:41:37.123Z,2.60
2022-12-20T19:44:06.083Z,2.50
2022-12-20T19:46:34.605Z,2.60
2022-12-20T19:49:03.320Z,2.60
2022-12-20T19:51:33.094Z,2.50
2022-12-20T19:54:01.153Z,2.50
2022-12-20T19:56:31.131Z,2.50
2022-12-20T19:58:59.002Z,2.50
2022-12-20T20:01:27.875Z,2.60
2022-12-20T20:03:57.644Z,2.60
2022-12-20T20:06:26.634Z,2.70
2022-12-20T20:08:59.469Z,2.70
2022-12-20T20:11:28.308Z,2.70
2022-12-20T20:13:56.223Z,2.70
2022-12-20T20:16:24.208Z,2.80
2022-12-20T20:18:52.155Z,2.80
2022-12-20T20:21:22.357Z,2.80
2022-12-20T20:23:51.013Z,2.90
2022-12-20T20:26:24.563Z,2.80
2022-12-20T20:28:52.694Z,2.70
2022-12-20T20:31:21.973Z,2.80
2022-12-20T20:33:50.304Z,2.80
2022-12-20T20:36:20.916Z,2.90
2022-12-20T20:38:49.490Z,2.90
2022-12-20T20:41:17.636Z,2.90
2022-12-20T20:43:46.892Z,2.90
2022-12-20T20:46:16.652Z,2.80
2022-12-20T20:48:45.568Z,2.90
2022-12-20T20:51:14.063Z,2.90
2022-12-20T20:53:41.966Z,2.90
2022-12-20T20:56:10.224Z,2.90
2022-12-20T20:58:38.511Z,2.90
2022-12-20T21:01:09.400Z,2.90
2022-12-20T21:03:37.585Z,2.90
2022-12-20T21:06:38.643Z,2.90
2022-12-20T21:08:54.772Z,2.90
2022-12-20T21:11:23.113Z,2.90
2022-12-20T21:13:51.046Z,3.00
2022-12-20T21:16:22.223Z,2.90
2022-12-20T21:18:52.272Z,2.90
2022-12-20T21:21:20.205Z,2.90
2022-12-20T21:23:48.707Z,2.90
2022-12-20T21:26:18.743Z,3.00
2022-12-20T21:28:46.702Z,3.00
2022-12-20T21:31:16.549Z,3.00
2022-12-20T21:33:46.169Z,3.00
2022-12-20T21:36:15.394Z,3.00
2022-12-20T21:38:43.703Z,3.00
2022-12-20T21:41:13.291Z,2.90
2022-12-20T21:43:41.222Z,2.90
2022-12-20T21:46:11.181Z,3.00
2022-12-20T21:48:39.703Z,2.90
2022-12-20T21:51:10.870Z,3.00
2022-12-20T21:53:43.429Z,3.00
2022-12-20T21:56:11.725Z,3.00
2022-12-20T21:58:39.832Z,3.10
2022-12-20T22:01:09.059Z,3.00
2022-12-20T22:03:38.046Z,3.10
2022-12-20T22:06:06.191Z,3.10
2022-12-20T22:08:35.774Z,3.00
2022-12-20T22:11:05.266Z,3.00
2022-12-20T22:13:39.020Z,3.00
2022-12-20T22:16:10.427Z,3.00
2022-12-20T22:18:38.860Z,3.00
2022-12-20T22:21:07.816Z,3.00
2022-12-20T22:23:37.332Z,2.90
2022-12-20T22:26:06.193Z,2.90
2022-12-20T22:28:34.421Z,2.90
2022-12-20T22:31:07.907Z,2.90
2022-12-20T22:33:35.887Z,2.90
2022-12-20T22:36:04.559Z,2.90
2022-12-20T22:38:32.729Z,2.90
2022-12-20T22:41:09.443Z,2.90
2022-12-20T22:43:38.483Z,3.00
2022-12-20T22:46:06.992Z,2.90
2022-12-20T22:48:34.877Z,2.90
2022-12-20T22:51:04.970Z,2.90
2022-12-20T22:53:34.652Z,2.80
2022-12-20T22:56:02.521Z,2.80
2022-12-20T22:58:32.403Z,2.80
2022-12-20T23:01:01.858Z,2.90
2022-12-20T23:03:31.148Z,2.90
2022-12-20T23:06:01.437Z,2.90
2022-12-20T23:08:30.913Z,3.00
2022-12-20T23:11:16.077Z,2.90
2022-12-20T23:14:02.782Z,2.90
2022-12-20T23:16:30.825Z,2.70
2022-12-20T23:19:00.775Z,2.80
2022-12-20T23:21:47.503Z,2.70
2022-12-20T23:24:15.759Z,2.80
2022-12-20T23:26:43.904Z,2.80
2022-12-20T23:29:14.283Z,2.90
2022-12-20T23:31:42.325Z,2.90
2022-12-20T23:34:10.126Z,2.90
2022-12-20T23:36:38.577Z,2.90
2022-12-20T23:39:06.934Z,2.90
2022-12-20T23:41:34.855Z,2.90
2022-12-20T23:44:04.802Z,2.90
2022-12-20T23:46:34.853Z,2.90
2022-12-20T23:49:02.717Z,2.90
2022-12-20T23:51:30.520Z,2.90
2022-12-20T23:53:58.287Z,2.90
2022-12-20T23:56:26.084Z,2.80
2022-12-20T23:58:55.279Z,2.90
